createdAt,value
2022-10-06T00:01:14.937Z,17.31
2022-10-06T00:03:42.781Z,17.30
2022-10-06T00:06:11.561Z,17.31
2022-10-06T00:08:39.545Z,17.31
2022-10-06T00:11:07.293Z,17.31
2022-10-06T00:13:35.024Z,17.30
2022-10-06T00:16:04.139Z,17.30
2022-10-06T00:18:33.158Z,17.30
2022-10-06T00:21:01.757Z,17.29
2022-10-06T00:23:29.444Z,17.29
2022-10-06T00:25:57.023Z,17.29
2022-10-06T00:28:24.617Z,17.30
2022-10-06T00:30:53.594Z,17.30
2022-10-06T00:33:21.268Z,17.30
2022-10-06T00:35:56.426Z,17.30
2022-10-06T00:38:23.931Z,17.29
2022-10-06T00:40:52.009Z,17.29
2022-10-06T00:43:44.180Z,17.30
2022-10-06T00:46:13.932Z,17.29
2022-10-06T00:48:41.647Z,17.29
2022-10-06T00:51:10.577Z,17.28
2022-10-06T00:53:38.124Z,17.30
2022-10-06T00:56:05.886Z,17.29
2022-10-06T00:58:33.439Z,17.28
2022-10-06T01:01:00.994Z,17.28
2022-10-06T01:03:30.336Z,17.29
2022-10-06T01:05:57.910Z,17.28
2022-10-06T01:08:27.153Z,17.28
2022-10-06T01:10:55.105Z,17.27
2022-10-06T01:13:22.652Z,17.28
2022-10-06T01:15:52.274Z,17.27
2022-10-06T01:18:19.882Z,17.27
2022-10-06T01:20:49.430Z,17.27
2022-10-06T01:23:18.353Z,17.29
2022-10-06T01:25:45.874Z,17.29
2022-10-06T01:28:13.541Z,17.28
2022-10-06T01:30:45.909Z,17.28
2022-10-06T01:33:13.532Z,17.27
2022-10-06T01:35:41.084Z,17.27
2022-10-06T01:38:08.594Z,17.28
2022-10-06T01:40:37.497Z,17.27
2022-10-06T01:43:05.020Z,17.26
2022-10-06T01:45:32.562Z,17.27
2022-10-06T01:48:00.148Z,17.27
2022-10-06T01:50:27.722Z,17.26
2022-10-06T01:52:56.446Z,17.26
2022-10-06T01:55:24.212Z,17.26
2022-10-06T01:57:53.150Z,17.27
2022-10-06T02:00:20.970Z,17.27
2022-10-06T02:02:48.485Z,17.27
2022-10-06T02:05:16.073Z,17.26
2022-10-06T02:07:43.618Z,17.27
2022-10-06T02:10:11.169Z,17.27
2022-10-06T02:12:39.158Z,17.27
2022-10-06T02:15:10.939Z,17.26
2022-10-06T02:17:38.813Z,17.25
2022-10-06T02:20:07.045Z,17.26
2022-10-06T02:22:38.477Z,17.25
2022-10-06T02:25:06.461Z,17.26
2022-10-06T02:27:33.973Z,17.25
2022-10-06T02:30:01.577Z,17.25
2022-10-06T02:32:36.558Z,17.26
2022-10-06T02:35:04.719Z,17.25
2022-10-06T02:37:32.272Z,17.25
2022-10-06T02:39:59.783Z,17.24
2022-10-06T02:42:27.425Z,17.25
2022-10-06T02:44:54.975Z,17.26
2022-10-06T02:47:22.645Z,17.26
2022-10-06T02:49:51.701Z,17.25
2022-10-06T02:52:19.274Z,17.25
2022-10-06T02:54:47.029Z,17.25
2022-10-06T02:57:15.336Z,17.24
2022-10-06T02:59:43.486Z,17.25
2022-10-06T03:02:11.135Z,17.23
2022-10-06T03:04:38.764Z,17.24
2022-10-06T03:07:07.639Z,17.23
2022-10-06T03:09:35.162Z,17.23
2022-10-06T03:12:02.772Z,17.23
2022-10-06T03:14:30.298Z,17.23
2022-10-06T03:16:57.853Z,17.24
2022-10-06T03:19:25.407Z,17.24
2022-10-06T03:21:52.954Z,17.23
2022-10-06T03:24:21.869Z,17.23
2022-10-06T03:26:49.390Z,17.24
2022-10-06T03:29:17.114Z,17.24
2022-10-06T03:31:44.788Z,17.24
2022-10-06T03:34:13.414Z,17.24
2022-10-06T03:36:40.963Z,17.23
2022-10-06T03:39:08.704Z,17.24
2022-10-06T03:41:38.037Z,17.23
2022-10-06T03:44:05.680Z,17.23
2022-10-06T03:46:35.106Z,17.23
2022-10-06T03:49:02.802Z,17.23
2022-10-06T03:51:31.630Z,17.23
2022-10-06T03:53:59.518Z,17.24
2022-10-06T03:56:28.125Z,17.24
2022-10-06T03:58:57.679Z,17.23
2022-10-06T04:01:26.782Z,17.23
2022-10-06T04:03:54.574Z,17.23
2022-10-06T04:06:22.229Z,17.23
2022-10-06T04:08:50.423Z,17.22
2022-10-06T04:11:18.801Z,17.21
2022-10-06T04:13:46.354Z,17.22
2022-10-06T04:16:16.419Z,17.21
2022-10-06T04:18:44.310Z,17.21
2022-10-06T04:21:12.012Z,17.21
2022-10-06T04:23:39.614Z,17.23
2022-10-06T04:26:09.808Z,17.23
2022-10-06T04:28:38.099Z,17.24
2022-10-06T04:31:07.140Z,17.24
2022-10-06T04:33:36.096Z,17.24
2022-10-06T04:36:04.472Z,17.24
2022-10-06T04:38:33.333Z,17.23
2022-10-06T04:41:05.592Z,17.23
2022-10-06T04:43:33.132Z,17.23
2022-10-06T04:46:09.399Z,17.23
2022-10-06T04:48:47.459Z,17.22
2022-10-06T04:51:15.716Z,17.23
2022-10-06T04:53:44.068Z,17.22
2022-10-06T04:56:12.653Z,17.23
2022-10-06T04:58:41.069Z,17.23
2022-10-06T05:01:13.871Z,17.23
2022-10-06T05:03:41.468Z,17.21
2022-10-06T05:06:12.512Z,17.21
2022-10-06T05:08:40.241Z,17.20
2022-10-06T05:11:13.657Z,17.21
2022-10-06T05:13:44.156Z,17.21
2022-10-06T05:16:13.587Z,17.21
2022-10-06T05:18:41.362Z,17.21
2022-10-06T05:21:12.774Z,17.20
2022-10-06T05:23:41.377Z,17.21
2022-10-06T05:26:08.913Z,17.20
2022-10-06T05:28:36.498Z,17.20
2022-10-06T05:31:05.522Z,17.20
2022-10-06T05:33:34.094Z,17.21
2022-10-06T05:36:02.438Z,17.20
2022-10-06T05:38:31.902Z,17.20
2022-10-06T05:41:03.177Z,17.21
2022-10-06T05:43:30.946Z,17.19
2022-10-06T05:45:59.376Z,17.20
2022-10-06T05:48:27.591Z,17.22
2022-10-06T05:51:01.435Z,17.23
2022-10-06T05:53:29.173Z,17.20
2022-10-06T05:56:08.040Z,17.21
2022-10-06T05:58:36.311Z,17.20
2022-10-06T06:01:08.053Z,17.20
2022-10-06T06:03:35.577Z,17.20
2022-10-06T06:06:03.302Z,17.20
2022-10-06T06:08:31.380Z,17.19
2022-10-06T06:11:08.230Z,17.20
2022-10-06T06:13:35.850Z,17.19
2022-10-06T06:16:04.155Z,17.19
2022-10-06T06:18:32.464Z,17.19
2022-10-06T06:21:00.925Z,17.19
2022-10-06T06:23:32.245Z,17.19
2022-10-06T06:26:02.510Z,17.18
2022-10-06T06:28:32.303Z,17.19
2022-10-06T06:31:02.444Z,17.19
2022-10-06T06:33:30.418Z,17.19
2022-10-06T06:36:01.135Z,17.19
2022-10-06T06:38:29.195Z,17.20
2022-10-06T06:40:56.872Z,17.21
2022-10-06T06:43:24.475Z,17.19
2022-10-06T06:45:53.429Z,17.19
2022-10-06T06:48:21.000Z,17.19
2022-10-06T06:50:56.851Z,17.19
2022-10-06T06:53:24.493Z,17.19
2022-10-06T06:55:52.477Z,17.20
2022-10-06T06:58:20.186Z,17.20
2022-10-06T07:00:48.046Z,17.19
2022-10-06T07:03:28.230Z,17.20
2022-10-06T07:06:08.785Z,17.20
2022-10-06T07:08:36.943Z,17.20
2022-10-06T07:11:14.950Z,17.20
2022-10-06T07:13:43.013Z,17.20
2022-10-06T07:16:29.144Z,17.20
2022-10-06T07:19:15.392Z,17.21
2022-10-06T07:22:00.813Z,17.21
2022-10-06T07:24:45.845Z,17.21
2022-10-06T07:27:13.677Z,17.22
2022-10-06T07:29:41.269Z,17.22
2022-10-06T07:32:08.871Z,17.21
2022-10-06T07:34:37.959Z,17.21
2022-10-06T07:37:06.514Z,17.23
2022-10-06T07:39:34.337Z,17.21
2022-10-06T07:42:01.845Z,17.23
2022-10-06T07:44:29.399Z,17.23
2022-10-06T07:46:56.922Z,17.23
2022-10-06T07:49:24.905Z,17.24
2022-10-06T07:51:53.798Z,17.24
2022-10-06T07:54:26.552Z,17.24
2022-10-06T07:56:54.938Z,17.24
2022-10-06T07:59:22.531Z,17.24
2022-10-06T08:01:52.351Z,17.23
2022-10-06T08:04:19.983Z,17.23
2022-10-06T08:06:49.369Z,17.25
2022-10-06T08:09:18.257Z,17.24
2022-10-06T08:11:47.257Z,17.25
2022-10-06T08:14:15.061Z,17.24
2022-10-06T08:16:42.600Z,17.25
2022-10-06T08:19:11.531Z,17.25
2022-10-06T08:21:39.538Z,17.24
2022-10-06T08:24:07.246Z,17.24
2022-10-06T08:26:36.112Z,17.25
2022-10-06T08:29:04.439Z,17.25
2022-10-06T08:31:32.232Z,17.26
2022-10-06T08:33:59.917Z,17.26
2022-10-06T08:36:31.404Z,17.28
2022-10-06T08:39:00.022Z,17.28
2022-10-06T08:41:28.380Z,17.28
2022-10-06T08:44:00.827Z,17.29
2022-10-06T08:46:31.522Z,17.29
2022-10-06T08:48:59.246Z,17.31
2022-10-06T08:51:34.624Z,17.30
2022-10-06T08:54:05.060Z,17.31
2022-10-06T08:56:33.563Z,17.32
2022-10-06T08:59:04.115Z,17.33
2022-10-06T09:01:33.777Z,17.35
2022-10-06T09:04:02.231Z,17.37
2022-10-06T09:06:51.605Z,17.38
2022-10-06T09:09:25.162Z,17.38
2022-10-06T09:11:58.506Z,17.40
2022-10-06T09:14:30.863Z,17.43
2022-10-06T09:17:00.648Z,17.42
2022-10-06T09:19:39.850Z,17.43
2022-10-06T09:22:07.673Z,17.44
2022-10-06T09:24:37.228Z,17.45
2022-10-06T09:27:15.948Z,17.46
2022-10-06T09:29:44.844Z,17.48
2022-10-06T09:32:12.387Z,17.48
2022-10-06T09:34:41.542Z,17.49
2022-10-06T09:37:11.033Z,17.51
2022-10-06T09:39:39.985Z,17.54
2022-10-06T09:42:12.385Z,17.54
2022-10-06T09:44:48.126Z,17.56
2022-10-06T09:47:40.412Z,17.56
2022-10-06T09:50:21.858Z,17.58
2022-10-06T09:53:04.205Z,17.59
2022-10-06T09:55:33.740Z,17.60
2022-10-06T09:58:01.308Z,17.61
2022-10-06T10:00:31.623Z,17.62
2022-10-06T10:02:59.947Z,17.64
2022-10-06T10:05:28.732Z,17.66
2022-10-06T10:08:02.770Z,17.69
2022-10-06T10:10:34.359Z,17.71
2022-10-06T10:13:01.914Z,17.73
2022-10-06T10:15:33.047Z,17.75
2022-10-06T10:18:02.992Z,17.76
2022-10-06T10:20:34.286Z,17.76
2022-10-06T10:23:04.786Z,17.76
2022-10-06T10:26:17.639Z,17.76
2022-10-06T10:28:58.163Z,17.75
2022-10-06T10:31:32.231Z,17.75
2022-10-06T10:34:12.696Z,17.77
2022-10-06T10:36:50.741Z,17.77
2022-10-06T10:39:20.435Z,17.77
2022-10-06T10:41:50.032Z,17.79
2022-10-06T10:44:24.482Z,17.80
2022-10-06T10:46:54.717Z,17.80
2022-10-06T10:49:26.555Z,17.81
2022-10-06T10:51:55.666Z,17.81
2022-10-06T10:54:26.665Z,17.83
2022-10-06T10:56:54.228Z,17.83
2022-10-06T10:59:23.263Z,17.81
2022-10-06T11:01:52.143Z,17.80
2022-10-06T11:04:21.221Z,17.81
2022-10-06T11:07:00.238Z,17.82
2022-10-06T11:09:31.118Z,17.82
2022-10-06T11:12:07.875Z,17.82
2022-10-06T11:14:46.797Z,17.83
2022-10-06T11:17:19.807Z,17.84
2022-10-06T11:19:52.062Z,17.84
2022-10-06T11:22:22.913Z,17.84
2022-10-06T11:24:55.091Z,17.83
2022-10-06T11:27:28.646Z,17.85
2022-10-06T11:30:02.336Z,17.84
2022-10-06T11:32:36.213Z,17.83
2022-10-06T11:35:14.904Z,17.83
2022-10-06T11:37:46.798Z,17.83
2022-10-06T11:40:23.830Z,17.84
2022-10-06T11:42:53.391Z,17.84
2022-10-06T11:45:23.340Z,17.83
2022-10-06T11:48:00.857Z,17.84
2022-10-06T11:50:36.430Z,17.85
2022-10-06T11:53:04.313Z,17.85
2022-10-06T11:55:31.954Z,17.86
2022-10-06T12:01:02.304Z,17.88
2022-10-06T12:03:47.221Z,17.88
2022-10-06T12:07:06.794Z,17.88
2022-10-06T12:10:00.530Z,17.89
2022-10-06T12:13:06.801Z,17.90
2022-10-06T12:18:48.096Z,17.90
2022-10-06T12:21:32.636Z,17.92
2022-10-06T12:24:05.013Z,17.91
2022-10-06T12:26:41.536Z,17.92
2022-10-06T12:29:32.653Z,17.93
2022-10-06T12:32:04.020Z,17.92
2022-10-06T12:34:45.047Z,17.94
2022-10-06T12:37:31.857Z,17.94
2022-10-06T12:40:32.746Z,17.95
2022-10-06T12:43:46.457Z,17.94
2022-10-06T12:46:17.635Z,17.95
2022-10-06T12:48:51.648Z,17.95
2022-10-06T12:51:25.328Z,17.97
2022-10-06T12:53:58.329Z,17.96
2022-10-06T12:56:28.834Z,17.96
2022-10-06T12:58:56.660Z,17.96
2022-10-06T13:01:25.686Z,17.97
2022-10-06T13:03:53.669Z,17.97
2022-10-06T13:06:22.774Z,17.97
2022-10-06T13:09:04.287Z,17.98
2022-10-06T13:11:31.896Z,17.97
2022-10-06T13:14:07.521Z,17.98
2022-10-06T13:16:39.355Z,17.99
2022-10-06T13:19:15.944Z,17.98
2022-10-06T13:21:43.665Z,17.98
2022-10-06T13:24:12.325Z,17.98
2022-10-06T13:26:39.941Z,17.99
2022-10-06T13:29:22.431Z,17.99
2022-10-06T13:31:53.150Z,17.99
2022-10-06T13:34:24.082Z,17.99
2022-10-06T13:36:51.857Z,17.99
2022-10-06T13:39:20.373Z,17.99
2022-10-06T13:41:48.805Z,18.00
2022-10-06T13:44:27.920Z,17.98
2022-10-06T13:46:58.232Z,17.99
2022-10-06T13:49:28.515Z,17.99
2022-10-06T13:51:57.130Z,17.98
2022-10-06T13:54:26.207Z,17.99
2022-10-06T13:56:53.777Z,17.98
2022-10-06T13:59:30.956Z,17.98
2022-10-06T14:02:01.995Z,17.99
2022-10-06T14:04:30.313Z,17.99
2022-10-06T14:06:59.457Z,17.99
2022-10-06T14:09:27.709Z,18.00
2022-10-06T14:11:55.557Z,17.99
2022-10-06T14:14:23.177Z,17.98
2022-10-06T14:16:52.311Z,18.00
2022-10-06T14:19:35.705Z,18.00
2022-10-06T14:22:03.636Z,17.98
2022-10-06T14:24:34.068Z,17.99
2022-10-06T14:27:02.340Z,17.99
2022-10-06T14:29:31.452Z,17.98
2022-10-06T14:32:07.792Z,17.97
2022-10-06T14:34:36.764Z,17.96
2022-10-06T14:37:04.328Z,17.95
2022-10-06T14:39:31.910Z,17.96
2022-10-06T14:42:00.044Z,17.95
2022-10-06T14:44:27.605Z,17.94
2022-10-06T14:46:55.139Z,17.95
2022-10-06T14:49:22.672Z,17.93
2022-10-06T14:51:52.075Z,17.94
2022-10-06T14:54:20.082Z,17.93
2022-10-06T14:56:47.628Z,17.91
2022-10-06T14:59:17.084Z,17.91
2022-10-06T15:01:45.580Z,17.91
2022-10-06T15:04:13.924Z,17.92
2022-10-06T15:06:59.146Z,17.91
2022-10-06T15:09:30.788Z,17.91
2022-10-06T15:11:58.858Z,17.92
2022-10-06T15:14:28.260Z,17.89
2022-10-06T15:16:58.953Z,17.91
2022-10-06T15:19:26.620Z,17.90
2022-10-06T15:22:12.706Z,17.90
2022-10-06T15:25:03.425Z,17.89
2022-10-06T15:27:48.646Z,17.90
2022-10-06T15:30:16.381Z,17.90
2022-10-06T15:32:44.067Z,17.89
2022-10-06T15:35:11.627Z,17.89
2022-10-06T15:37:39.249Z,17.89
2022-10-06T15:40:09.144Z,17.89
2022-10-06T15:42:36.676Z,17.89
2022-10-06T15:45:07.474Z,17.89
2022-10-06T15:47:35.522Z,17.89
2022-10-06T15:50:03.457Z,17.89
2022-10-06T15:52:33.824Z,17.89
2022-10-06T15:55:01.394Z,17.88
2022-10-06T15:57:31.359Z,17.89
2022-10-06T15:59:58.929Z,17.88
2022-10-06T16:02:27.094Z,17.88
2022-10-06T16:05:18.404Z,17.88
2022-10-06T16:07:45.940Z,17.87
2022-10-06T16:10:13.740Z,17.88
2022-10-06T16:12:42.641Z,17.87
2022-10-06T16:15:11.052Z,17.87
2022-10-06T16:17:38.878Z,17.87
2022-10-06T16:20:07.516Z,17.87
2022-10-06T16:22:35.367Z,17.86
2022-10-06T16:25:03.231Z,17.87
2022-10-06T16:27:33.476Z,17.86
2022-10-06T16:30:02.585Z,17.86
2022-10-06T16:32:30.141Z,17.87
2022-10-06T16:34:57.758Z,17.86
2022-10-06T16:37:25.308Z,17.86
2022-10-06T16:39:52.890Z,17.87
2022-10-06T16:42:20.401Z,17.86
2022-10-06T16:44:47.970Z,17.85
2022-10-06T16:47:16.939Z,17.84
2022-10-06T16:49:44.471Z,17.84
2022-10-06T16:52:11.989Z,17.84
2022-10-06T16:54:39.525Z,17.84
2022-10-06T16:57:07.385Z,17.84
2022-10-06T16:59:34.909Z,17.84
2022-10-06T17:02:02.449Z,17.85
2022-10-06T17:04:31.342Z,17.85
2022-10-06T17:06:58.908Z,17.86
2022-10-06T17:09:27.109Z,17.88
2022-10-06T17:11:55.434Z,17.87
2022-10-06T17:14:23.100Z,17.88
2022-10-06T17:16:51.636Z,17.88
2022-10-06T17:19:20.230Z,17.87
2022-10-06T17:21:54.055Z,17.91
2022-10-06T17:24:25.404Z,17.97
2022-10-06T17:26:52.956Z,18.06
2022-10-06T17:29:21.662Z,18.16
2022-10-06T17:31:50.377Z,18.26
2022-10-06T17:34:21.169Z,18.38
2022-10-06T17:36:51.878Z,18.48
2022-10-06T17:39:20.568Z,18.59
2022-10-06T17:41:48.829Z,18.67
2022-10-06T17:44:18.734Z,18.74
2022-10-06T17:46:47.094Z,18.80
2022-10-06T17:49:35.137Z,18.90
2022-10-06T17:52:24.525Z,18.95
2022-10-06T17:54:54.337Z,18.99
2022-10-06T17:57:21.873Z,19.03
2022-10-06T17:59:49.435Z,19.07
2022-10-06T18:02:17.127Z,19.08
2022-10-06T18:04:46.212Z,19.11
2022-10-06T18:07:13.800Z,19.14
2022-10-06T18:10:02.981Z,19.18
2022-10-06T18:12:36.040Z,19.22
2022-10-06T18:15:03.613Z,19.25
2022-10-06T18:17:31.389Z,19.28
2022-10-06T18:19:58.896Z,19.28
2022-10-06T18:22:26.525Z,19.29
2022-10-06T18:24:59.202Z,19.31
2022-10-06T18:27:27.195Z,19.32
2022-10-06T18:29:54.710Z,19.34
2022-10-06T18:37:59.088Z,19.41
2022-10-06T18:40:27.989Z,19.43
2022-10-06T18:42:55.569Z,19.45
2022-10-06T18:45:40.883Z,19.45
2022-10-06T18:48:26.604Z,19.45
2022-10-06T18:51:01.111Z,19.48
2022-10-06T18:53:30.986Z,19.50
2022-10-06T18:55:59.938Z,19.50
2022-10-06T18:58:27.466Z,19.50
2022-10-06T19:00:55.852Z,19.52
2022-10-06T19:03:23.400Z,19.53
2022-10-06T19:05:54.032Z,19.55
2022-10-06T19:08:21.553Z,19.56
2022-10-06T19:11:03.041Z,19.57
2022-10-06T19:13:31.931Z,19.60
2022-10-06T19:15:59.922Z,19.64
2022-10-06T19:18:33.936Z,19.65
2022-10-06T19:21:03.133Z,19.65
2022-10-06T19:23:33.925Z,19.66
2022-10-06T19:26:01.682Z,19.67
2022-10-06T19:28:30.374Z,19.65
2022-10-06T19:31:00.194Z,19.60
2022-10-06T19:33:27.733Z,19.55
2022-10-06T19:35:55.346Z,19.51
2022-10-06T19:38:23.073Z,19.45
2022-10-06T19:40:50.781Z,19.39
2022-10-06T19:43:17.577Z,19.35
2022-10-06T19:45:45.424Z,19.29
2022-10-06T19:48:14.483Z,19.24
2022-10-06T19:50:42.092Z,19.20
2022-10-06T19:53:09.611Z,19.15
2022-10-06T19:55:37.180Z,19.11
2022-10-06T19:58:04.741Z,19.07
2022-10-06T20:00:32.293Z,19.03
2022-10-06T20:02:59.886Z,19.00
2022-10-06T20:05:29.146Z,18.98
2022-10-06T20:07:56.834Z,18.95
2022-10-06T20:10:24.427Z,18.93
2022-10-06T20:12:52.050Z,18.88
2022-10-06T20:15:19.797Z,18.86
2022-10-06T20:17:47.779Z,18.85
2022-10-06T20:20:15.776Z,18.82
2022-10-06T20:22:45.401Z,18.79
2022-10-06T20:25:12.933Z,18.78
2022-10-06T20:27:40.581Z,18.75
2022-10-06T20:30:09.166Z,18.73
2022-10-06T20:32:36.742Z,18.70
2022-10-06T20:35:04.687Z,18.68
2022-10-06T20:37:32.252Z,18.67
2022-10-06T20:40:19.029Z,18.65
2022-10-06T20:42:49.309Z,18.64
2022-10-06T20:45:17.091Z,18.63
2022-10-06T20:47:45.478Z,18.60
2022-10-06T20:50:13.979Z,18.60
2022-10-06T20:52:41.583Z,18.58
2022-10-06T20:55:10.731Z,18.57
2022-10-06T20:57:38.265Z,18.57
2022-10-06T21:00:07.240Z,18.55
2022-10-06T21:02:34.989Z,18.55
2022-10-06T21:05:02.704Z,18.54
2022-10-06T21:07:30.307Z,18.52
2022-10-06T21:09:57.882Z,18.52
2022-10-06T21:12:26.983Z,18.50
2022-10-06T21:14:56.913Z,18.50
2022-10-06T21:17:24.587Z,18.49
2022-10-06T21:19:52.141Z,18.48
2022-10-06T21:22:19.691Z,18.48
2022-10-06T21:24:47.189Z,18.46
2022-10-06T21:27:18.329Z,18.47
2022-10-06T21:29:47.593Z,18.45
2022-10-06T21:32:15.226Z,18.45
2022-10-06T21:34:42.768Z,18.44
2022-10-06T21:37:10.385Z,18.43
2022-10-06T21:39:37.904Z,18.42
2022-10-06T21:42:05.487Z,18.43
2022-10-06T21:44:33.083Z,18.41
2022-10-06T21:47:02.917Z,18.41
2022-10-06T21:49:30.628Z,18.41
2022-10-06T21:52:03.456Z,18.39
2022-10-06T21:54:31.068Z,18.40
2022-10-06T21:56:59.065Z,18.38
2022-10-06T21:59:26.644Z,18.38
2022-10-06T22:01:54.204Z,18.37
2022-10-06T22:04:23.197Z,18.37
2022-10-06T22:06:50.710Z,18.38
2022-10-06T22:09:19.091Z,18.36
2022-10-06T22:11:46.611Z,18.36
2022-10-06T22:14:14.837Z,18.35
2022-10-06T22:16:42.429Z,18.34
2022-10-06T22:19:11.480Z,18.33
2022-10-06T22:21:41.103Z,18.33
2022-10-06T22:24:09.518Z,18.32
2022-10-06T22:26:38.349Z,18.32
2022-10-06T22:29:06.159Z,18.32
2022-10-06T22:31:34.076Z,18.31
2022-10-06T22:34:04.584Z,18.31
2022-10-06T22:36:32.964Z,18.31
2022-10-06T22:39:01.825Z,18.30
2022-10-06T22:41:29.451Z,18.29
2022-10-06T22:43:57.938Z,18.29
2022-10-06T22:46:25.655Z,18.29
2022-10-06T22:48:53.233Z,18.28
2022-10-06T22:51:20.808Z,18.27
2022-10-06T22:53:48.322Z,18.27
2022-10-06T22:56:17.193Z,18.27
2022-10-06T22:58:44.715Z,18.27
2022-10-06T23:01:12.627Z,18.26
2022-10-06T23:03:40.488Z,18.26
2022-10-06T23:06:08.792Z,18.26
2022-10-06T23:08:36.988Z,18.25
2022-10-06T23:11:05.540Z,18.25
2022-10-06T23:13:34.424Z,18.25
2022-10-06T23:16:07.208Z,18.24
2022-10-06T23:18:35.716Z,18.24
2022-10-06T23:21:04.424Z,18.23
2022-10-06T23:23:32.253Z,18.24
2022-10-06T23:26:04.264Z,18.24
2022-10-06T23:28:31.875Z,18.23
2022-10-06T23:31:00.813Z,18.22
2022-10-06T23:33:30.273Z,18.22
2022-10-06T23:35:59.081Z,18.21
2022-10-06T23:38:26.722Z,18.21
2022-10-06T23:40:54.269Z,18.21
2022-10-06T23:43:22.083Z,18.22
2022-10-06T23:45:50.107Z,18.21
2022-10-06T23:48:18.991Z,18.21
2022-10-06T23:50:55.859Z,18.21
2022-10-06T23:53:23.380Z,18.18
2022-10-06T23:55:50.921Z,18.19
2022-10-06T23:58:18.710Z,18.18
